Time;durP1;ratioP1;P1;durP2;ratioP2;P2;SDS_P1;SDS_P2;PMS_P1;PMS_P2;Temp;Humidity;BMP_temperature;BMP_pressure;BME280_temperature;BME280_humidity;BME280_pressure;Samples;Min_cycle;Max_cycle;Signal;HPM_P1;HPM_P2
2021/11/27 00:00:56;;;;;;;7.23;6.23;;;6.20;99.70;;;;;;5114902;28;20035;-80
2021/11/27 00:03:23;;;;;;;6.30;5.70;;;6.20;99.70;;;;;;5097702;28;20076;-80
2021/11/27 00:05:50;;;;;;;5.97;5.40;;;6.20;99.70;;;;;;5115368;28;20124;-79
2021/11/27 00:08:18;;;;;;;6.07;5.47;;;6.20;99.80;;;;;;5098731;28;20032;-79
2021/11/27 00:10:49;;;;;;;6.47;5.63;;;6.20;99.70;;;;;;5117318;28;20031;-80
2021/11/27 00:13:16;;;;;;;6.00;5.40;;;6.20;99.70;;;;;;5117417;28;20019;-81
2021/11/27 00:15:43;;;;;;;5.83;5.27;;;6.20;99.80;;;;;;5116416;28;20023;-80
2021/11/27 00:18:10;;;;;;;5.63;5.13;;;6.20;99.80;;;;;;5115276;28;20080;-79
2021/11/27 00:20:44;;;;;;;6.17;5.07;;;6.20;99.80;;;;;;5116071;28;20032;-79
2021/11/27 00:23:11;;;;;;;6.37;5.77;;;6.20;99.80;;;;;;5115028;28;20110;-80
2021/11/27 00:25:37;;;;;;;6.20;5.60;;;6.10;99.70;;;;;;5114405;28;20023;-79
2021/11/27 00:28:03;;;;;;;7.17;6.47;;;6.10;99.90;;;;;;5115799;28;20062;-79
2021/11/27 00:30:32;;;;;;;6.23;5.73;;;6.20;99.80;;;;;;5101559;28;20027;-78
2021/11/27 00:32:58;;;;;;;5.67;5.03;;;6.00;99.70;;;;;;5125626;28;20020;-79
2021/11/27 00:35:25;;;;;;;5.23;4.83;;;6.00;99.70;;;;;;5125345;28;20108;-80
2021/11/27 00:37:54;;;;;;;4.50;4.10;;;5.90;99.60;;;;;;5126974;28;20030;-80
2021/11/27 00:40:20;;;;;;;2.90;2.70;;;5.80;99.70;;;;;;5126844;28;20065;-80
2021/11/27 00:42:47;;;;;;;1.63;1.53;;;5.80;99.50;;;;;;5108890;28;20096;-78
2021/11/27 00:45:16;;;;;;;2.20;1.90;;;5.70;99.40;;;;;;5110451;28;20024;-81
2021/11/27 00:47:45;;;;;;;3.10;1.93;;;5.70;99.30;;;;;;5126763;28;20023;-80
2021/11/27 00:50:14;;;;;;;2.93;2.07;;;5.60;99.20;;;;;;5127412;28;20494;-77
2021/11/27 00:52:40;;;;;;;2.60;2.00;;;5.50;99.20;;;;;;5128855;28;20106;-79
2021/11/27 00:55:12;;;;;;;2.30;2.10;;;5.60;99.20;;;;;;5121816;28;20032;-79
2021/11/27 00:57:39;;;;;;;2.43;2.10;;;5.50;99.10;;;;;;5123037;28;20042;-80
2021/11/27 01:00:12;;;;;;;2.07;1.87;;;5.50;99.10;;;;;;5120471;28;20491;-79
2021/11/27 01:02:38;;;;;;;1.98;1.83;;;5.40;99.00;;;;;;5118292;28;20047;-79
2021/11/27 01:05:06;;;;;;;1.97;1.60;;;5.40;99.00;;;;;;5117624;28;20387;-80
2021/11/27 01:07:32;;;;;;;1.70;1.60;;;5.40;99.00;;;;;;5118754;28;20103;-78
2021/11/27 01:09:58;;;;;;;2.23;1.70;;;5.40;99.00;;;;;;5118012;28;20028;-79
2021/11/27 01:12:24;;;;;;;2.00;1.43;;;5.30;98.90;;;;;;5100366;28;20016;-80
2021/11/27 01:14:50;;;;;;;3.07;1.30;;;5.30;98.80;;;;;;5118522;28;20471;-80
2021/11/27 01:17:16;;;;;;;1.40;1.20;;;5.20;98.60;;;;;;5100132;28;20126;-81
2021/11/27 01:19:42;;;;;;;1.63;1.37;;;5.10;98.50;;;;;;5117257;28;20050;-80
2021/11/27 01:22:14;;;;;;;1.53;0.93;;;5.00;98.60;;;;;;5118323;28;20028;-79
2021/11/27 01:24:40;;;;;;;1.20;1.10;;;4.90;98.50;;;;;;5117408;28;20011;-80
2021/11/27 01:27:06;;;;;;;2.67;1.17;;;4.90;98.60;;;;;;5116433;28;20753;-80
2021/11/27 01:29:33;;;;;;;1.70;1.20;;;4.90;98.60;;;;;;5118534;28;20027;-81
2021/11/27 01:31:59;;;;;;;1.20;1.00;;;4.80;98.60;;;;;;5100771;28;20119;-79
2021/11/27 01:34:24;;;;;;;1.00;0.60;;;4.80;98.70;;;;;;5100086;28;20396;-82
2021/11/27 01:36:50;;;;;;;2.10;0.70;;;4.80;98.50;;;;;;5118036;28;20026;-79
2021/11/27 01:39:17;;;;;;;0.80;0.60;;;4.70;98.40;;;;;;5115676;28;20039;-81
2021/11/27 01:41:44;;;;;;;2.57;0.80;;;4.70;98.50;;;;;;5115772;28;20020;-80
2021/11/27 01:44:10;;;;;;;1.10;0.73;;;4.60;98.50;;;;;;5116815;28;20093;-78
2021/11/27 01:46:38;;;;;;;1.33;0.93;;;4.60;98.40;;;;;;5099017;28;20024;-81
2021/11/27 01:49:07;;;;;;;1.90;0.80;;;4.50;98.40;;;;;;5117239;28;20028;-78
2021/11/27 01:51:34;;;;;;;2.57;1.30;;;4.50;98.50;;;;;;5116503;28;20024;-79
2021/11/27 01:54:03;;;;;;;1.50;1.00;;;4.50;98.60;;;;;;5115875;28;20031;-79
2021/11/27 01:56:33;;;;;;;1.40;1.10;;;4.50;98.60;;;;;;5116954;28;20031;-79
2021/11/27 01:58:59;;;;;;;1.50;1.30;;;4.40;98.40;;;;;;5115572;28;20483;-79
2021/11/27 02:01:29;;;;;;;1.43;1.07;;;4.30;98.10;;;;;;5115518;28;20460;-81
2021/11/27 02:03:56;;;;;;;1.90;1.27;;;4.20;98.00;;;;;;5115763;28;20042;-80
2021/11/27 02:06:22;;;;;;;1.60;1.37;;;4.00;98.10;;;;;;5098993;28;20028;-79
2021/11/27 02:08:49;;;;;;;1.73;1.37;;;4.00;98.20;;;;;;5115252;28;20032;-79
2021/11/27 02:11:20;;;;;;;1.70;1.37;;;3.90;98.30;;;;;;5115789;28;20069;-78
2021/11/27 02:13:45;;;;;;;1.77;1.20;;;4.00;98.60;;;;;;5115565;28;20169;-79
2021/11/27 02:16:12;;;;;;;1.83;1.50;;;4.00;98.50;;;;;;5116462;28;20106;-77
2021/11/27 02:18:38;;;;;;;2.00;1.40;;;4.00;98.60;;;;;;5098000;28;20028;-80
2021/11/27 02:21:11;;;;;;;2.07;1.57;;;4.00;98.50;;;;;;5116405;28;20036;-77
2021/11/27 02:23:37;;;;;;;2.00;1.57;;;3.90;98.50;;;;;;5117232;27;20475;-78
2021/11/27 02:26:06;;;;;;;1.93;1.57;;;4.00;98.70;;;;;;5115543;28;20480;-78
2021/11/27 02:28:34;;;;;;;2.43;1.83;;;4.00;98.90;;;;;;5115494;28;20119;-78
2021/11/27 02:31:01;;;;;;;2.10;1.90;;;4.00;98.80;;;;;;5116421;27;20031;-78
2021/11/27 02:33:27;;;;;;;2.00;1.80;;;4.00;98.80;;;;;;5116178;28;20076;-81
2021/11/27 02:35:54;;;;;;;2.53;2.17;;;3.90;98.60;;;;;;5098363;28;20363;-79
2021/11/27 02:38:21;;;;;;;3.70;2.63;;;3.90;98.60;;;;;;5116021;28;20051;-78
2021/11/27 02:40:47;;;;;;;3.00;2.50;;;3.90;98.80;;;;;;5115785;28;20024;-78
2021/11/27 02:43:13;;;;;;;3.37;2.87;;;3.90;98.80;;;;;;5115752;28;20024;-78
2021/11/27 02:45:38;;;;;;;3.20;2.60;;;3.90;99.00;;;;;;5114763;28;20036;-76
2021/11/27 02:48:04;;;;;;;2.80;2.40;;;4.00;99.10;;;;;;5114508;28;20028;-78
2021/11/27 02:50:31;;;;;;;3.07;2.77;;;4.00;98.90;;;;;;5116227;28;20497;-78
2021/11/27 02:52:57;;;;;;;2.83;2.50;;;4.00;98.90;;;;;;5114596;28;20092;-77
2021/11/27 02:55:23;;;;;;;3.63;2.57;;;4.00;98.90;;;;;;5114907;28;20027;-78
2021/11/27 02:57:49;;;;;;;3.13;2.40;;;4.00;98.90;;;;;;5114363;28;20083;-79
2021/11/27 03:00:18;;;;;;;3.17;2.87;;;4.00;98.90;;;;;;5114586;28;20123;-77
2021/11/27 03:02:44;;;;;;;3.53;2.87;;;3.90;98.70;;;;;;5115414;28;20502;-78
2021/11/27 03:05:11;;;;;;;4.60;3.50;;;3.90;98.90;;;;;;5114597;28;20067;-78
2021/11/27 03:07:38;;;;;;;4.00;3.20;;;3.90;98.90;;;;;;5115448;28;20066;-78
2021/11/27 03:10:07;;;;;;;4.33;3.50;;;3.90;98.90;;;;;;5113859;28;20026;-77
2021/11/27 03:12:34;;;;;;;3.53;3.20;;;3.90;98.90;;;;;;5115108;28;20028;-77
2021/11/27 03:15:00;;;;;;;4.33;3.73;;;3.90;98.90;;;;;;5097165;28;20024;-78
2021/11/27 03:17:26;;;;;;;4.30;3.23;;;3.90;99.00;;;;;;5114093;28;20032;-78
2021/11/27 03:19:52;;;;;;;4.00;3.57;;;3.90;99.10;;;;;;5114242;28;20128;-80
2021/11/27 03:22:19;;;;;;;4.40;3.97;;;4.00;99.20;;;;;;5113743;28;20537;-78
2021/11/27 03:24:46;;;;;;;5.07;4.57;;;4.10;99.20;;;;;;5115432;28;20173;-77
2021/11/27 03:27:14;;;;;;;6.27;4.67;;;4.10;99.20;;;;;;5113576;28;20043;-78
2021/11/27 03:29:40;;;;;;;5.73;4.93;;;4.20;99.20;;;;;;5113876;28;20492;-78
2021/11/27 03:32:17;;;;;;;5.63;4.83;;;4.20;99.20;;;;;;5114525;28;20024;-79
2021/11/27 03:34:44;;;;;;;5.93;5.17;;;4.30;99.30;;;;;;5096877;28;20186;-79
2021/11/27 03:37:11;;;;;;;5.83;5.23;;;4.40;99.40;;;;;;5079855;28;20069;-78
2021/11/27 03:39:37;;;;;;;5.93;5.27;;;4.40;99.30;;;;;;5115008;28;20069;-78
2021/11/27 03:42:06;;;;;;;5.53;4.90;;;4.40;99.30;;;;;;5096591;28;20050;-78
2021/11/27 03:44:33;;;;;;;5.67;5.10;;;4.50;99.40;;;;;;5113512;28;20020;-80
2021/11/27 03:46:59;;;;;;;7.47;5.83;;;4.50;99.40;;;;;;5114477;28;20452;-78
2021/11/27 03:49:28;;;;;;;6.90;6.17;;;4.60;99.40;;;;;;5113624;28;20391;-78
2021/11/27 03:51:54;;;;;;;7.33;6.33;;;4.60;99.50;;;;;;5114303;28;20015;-78
2021/11/27 03:54:21;;;;;;;8.47;6.57;;;4.60;99.50;;;;;;5114029;28;20164;-78
2021/11/27 03:56:47;;;;;;;8.57;7.47;;;4.60;99.50;;;;;;5095895;28;20030;-78
2021/11/27 03:59:14;;;;;;;9.40;8.23;;;4.60;99.60;;;;;;5114238;28;20050;-79
2021/11/27 04:01:40;;;;;;;9.73;8.53;;;4.60;99.60;;;;;;5114202;28;20031;-78
2021/11/27 04:04:06;;;;;;;9.77;8.30;;;4.60;99.60;;;;;;5114805;28;20031;-78
2021/11/27 04:06:33;;;;;;;11.83;9.73;;;4.60;99.60;;;;;;5113363;28;20024;-80
2021/11/27 04:09:00;;;;;;;14.97;9.33;;;4.60;99.60;;;;;;5115214;28;20031;-78
2021/11/27 04:11:27;;;;;;;12.90;9.50;;;4.50;99.60;;;;;;5114086;28;20460;-79
2021/11/27 04:13:54;;;;;;;13.97;10.77;;;4.50;99.70;;;;;;5115583;28;20216;-77
2021/11/27 04:16:20;;;;;;;13.17;10.03;;;4.50;99.80;;;;;;5115955;28;20451;-78
2021/11/27 04:18:45;;;;;;;13.20;10.20;;;4.40;99.80;;;;;;5113981;28;20043;-79
2021/11/27 04:21:12;;;;;;;14.93;11.10;;;4.40;99.80;;;;;;5097238;28;20081;-80
2021/11/27 04:23:38;;;;;;;13.20;10.33;;;4.30;99.90;;;;;;5116411;28;20020;-84
2021/11/27 04:26:04;;;;;;;15.97;10.90;;;4.40;99.90;;;;;;5099677;28;20023;-78
2021/11/27 04:28:30;;;;;;;18.33;11.73;;;4.30;99.90;;;;;;5118903;28;20047;-78
2021/11/27 04:30:56;;;;;;;17.53;11.53;;;4.30;99.90;;;;;;5119549;28;20414;-79
2021/11/27 04:33:23;;;;;;;14.40;11.60;;;4.40;99.90;;;;;;5117560;28;20452;-78
2021/11/27 04:35:49;;;;;;;15.13;11.13;;;4.50;99.90;;;;;;5116249;28;20062;-77
2021/11/27 04:38:15;;;;;;;17.60;12.40;;;4.50;99.90;;;;;;5115362;28;20383;-80
2021/11/27 04:40:41;;;;;;;18.70;13.10;;;4.50;99.90;;;;;;5115335;28;20391;-78
2021/11/27 04:43:07;;;;;;;16.23;12.50;;;4.60;99.90;;;;;;5114547;28;20123;-79
2021/11/27 04:45:33;;;;;;;17.37;12.73;;;4.60;99.90;;;;;;5116622;28;20030;-80
2021/11/27 04:48:00;;;;;;;16.17;12.50;;;4.70;99.90;;;;;;5115608;28;20420;-79
2021/11/27 04:50:27;;;;;;;17.60;13.67;;;4.70;99.90;;;;;;5114279;28;20027;-80
2021/11/27 04:52:56;;;;;;;17.13;13.33;;;4.70;99.90;;;;;;5112951;28;20031;-79
2021/11/27 04:55:22;;;;;;;16.53;13.13;;;4.70;99.90;;;;;;5113841;28;20072;-79
2021/11/27 04:57:48;;;;;;;15.53;11.93;;;4.70;99.90;;;;;;5097400;28;20050;-79
2021/11/27 05:00:21;;;;;;;16.63;13.20;;;4.70;99.90;;;;;;5112579;28;20019;-79
2021/11/27 05:02:46;;;;;;;19.08;12.30;;;4.70;99.90;;;;;;5115284;28;20031;-80
2021/11/27 05:05:12;;;;;;;18.97;13.00;;;4.70;99.90;;;;;;5114494;28;20032;-80
2021/11/27 05:07:38;;;;;;;14.63;11.83;;;4.70;99.80;;;;;;5114329;28;20028;-79
2021/11/27 05:10:04;;;;;;;16.93;12.30;;;4.60;99.80;;;;;;5079274;28;20032;-80
2021/11/27 05:12:30;;;;;;;16.50;12.37;;;4.60;99.80;;;;;;5114984;28;20016;-79
2021/11/27 05:14:56;;;;;;;18.20;12.67;;;4.40;99.60;;;;;;5113353;28;20022;-81
2021/11/27 05:17:22;;;;;;;16.57;11.37;;;4.40;99.60;;;;;;5112465;28;20028;-79
2021/11/27 05:19:47;;;;;;;18.00;12.10;;;4.20;99.60;;;;;;5112937;28;20441;-79
2021/11/27 05:22:13;;;;;;;16.73;12.50;;;4.10;99.70;;;;;;5112115;28;20122;-78
2021/11/27 05:24:44;;;;;;;16.07;12.10;;;4.00;99.80;;;;;;5095198;28;20024;-78
2021/11/27 05:27:14;;;;;;;16.33;12.30;;;3.90;99.90;;;;;;5095644;28;20048;-79
2021/11/27 05:29:41;;;;;;;16.07;12.13;;;3.90;99.90;;;;;;5113323;28;20028;-79
2021/11/27 05:32:08;;;;;;;17.73;12.00;;;3.90;99.90;;;;;;5113634;28;20027;-79
2021/11/27 05:34:34;;;;;;;17.00;12.23;;;4.00;99.90;;;;;;5112692;28;20032;-79
2021/11/27 05:37:04;;;;;;;18.63;12.20;;;4.10;99.90;;;;;;5112963;28;20357;-79
2021/11/27 05:39:30;;;;;;;17.00;12.57;;;4.20;99.90;;;;;;5116206;28;20115;-79
2021/11/27 05:41:56;;;;;;;18.80;12.30;;;4.40;99.90;;;;;;5115478;28;20023;-79
2021/11/27 05:44:22;;;;;;;16.53;12.07;;;4.50;99.90;;;;;;5098510;28;20031;-79
2021/11/27 05:46:48;;;;;;;16.90;12.03;;;4.50;99.90;;;;;;5115744;28;20059;-79
2021/11/27 05:49:14;;;;;;;17.50;12.40;;;4.60;99.90;;;;;;5115069;28;20031;-81
2021/11/27 05:51:40;;;;;;;19.27;12.40;;;4.70;99.90;;;;;;5115365;28;20031;-79
2021/11/27 05:54:05;;;;;;;17.20;12.77;;;4.70;99.90;;;;;;5115571;28;20032;-79
2021/11/27 05:56:31;;;;;;;17.67;11.73;;;4.70;99.90;;;;;;5115199;28;20421;-78
2021/11/27 05:58:57;;;;;;;15.77;11.93;;;4.70;99.90;;;;;;5116350;27;20068;-80
2021/11/27 06:01:24;;;;;;;16.93;12.17;;;4.70;99.90;;;;;;5098156;28;20028;-78
2021/11/27 06:03:50;;;;;;;17.00;11.90;;;4.70;99.90;;;;;;5114949;28;20115;-79
2021/11/27 06:06:16;;;;;;;15.07;11.27;;;4.80;99.90;;;;;;5116548;27;20023;-79
2021/11/27 06:08:42;;;;;;;15.70;11.13;;;4.90;99.90;;;;;;5115814;28;20042;-79
2021/11/27 06:11:08;;;;;;;16.40;11.20;;;4.90;99.90;;;;;;5116169;28;20131;-80
2021/11/27 06:13:33;;;;;;;17.07;11.07;;;5.00;99.90;;;;;;5115233;28;20031;-80
2021/11/27 06:16:00;;;;;;;16.30;11.27;;;4.90;99.80;;;;;;5081239;28;20024;-80
2021/11/27 06:18:26;;;;;;;16.07;11.63;;;4.90;99.80;;;;;;5115986;28;20080;-81
2021/11/27 06:20:51;;;;;;;15.77;10.97;;;4.90;99.70;;;;;;5114677;28;20106;-80
2021/11/27 06:23:17;;;;;;;16.50;11.13;;;4.90;99.80;;;;;;5114962;28;20459;-82
2021/11/27 06:25:42;;;;;;;17.23;11.63;;;4.90;99.80;;;;;;5097734;28;20551;-80
2021/11/27 06:28:09;;;;;;;20.47;13.10;;;5.00;99.80;;;;;;5097370;28;20124;-80
2021/11/27 06:30:36;;;;;;;14.87;10.70;;;5.00;99.70;;;;;;5114527;28;20047;-81
2021/11/27 06:33:01;;;;;;;15.03;10.93;;;4.90;99.60;;;;;;5114580;28;20024;-80
2021/11/27 06:35:27;;;;;;;16.50;11.47;;;4.90;99.60;;;;;;5115986;28;20099;-80
2021/11/27 06:37:53;;;;;;;16.73;11.43;;;4.90;99.70;;;;;;5115386;28;20039;-81
2021/11/27 06:40:19;;;;;;;16.40;11.50;;;4.90;99.60;;;;;;5114267;28;20016;-80
2021/11/27 06:42:44;;;;;;;16.27;11.70;;;4.90;99.50;;;;;;5114146;28;20055;-80
2021/11/27 06:45:10;;;;;;;18.00;11.83;;;4.80;99.40;;;;;;5115913;28;20400;-80
2021/11/27 06:47:36;;;;;;;16.10;10.90;;;4.80;99.50;;;;;;5114149;28;20036;-81
2021/11/27 06:50:02;;;;;;;18.30;11.20;;;4.80;99.60;;;;;;5114726;28;20019;-81
2021/11/27 06:52:27;;;;;;;15.63;11.37;;;4.80;99.60;;;;;;5114893;28;20055;-80
2021/11/27 06:54:53;;;;;;;15.80;11.17;;;4.90;99.80;;;;;;5096669;28;20058;-80
2021/11/27 06:57:19;;;;;;;23.33;12.23;;;4.90;99.50;;;;;;5115593;28;20031;-80
2021/11/27 06:59:44;;;;;;;17.20;11.63;;;4.80;99.30;;;;;;5096842;28;20482;-80
2021/11/27 07:02:10;;;;;;;17.80;11.37;;;4.70;99.30;;;;;;5115054;28;20027;-80
2021/11/27 07:04:36;;;;;;;16.40;11.60;;;4.60;99.40;;;;;;5114658;28;20033;-80
2021/11/27 07:07:02;;;;;;;20.50;11.60;;;4.60;99.70;;;;;;5113636;28;20038;-80
2021/11/27 07:09:28;;;;;;;17.53;11.33;;;4.60;99.80;;;;;;5097089;28;20120;-81
2021/11/27 07:11:54;;;;;;;20.07;11.87;;;4.50;99.80;;;;;;5096740;28;20495;-81
2021/11/27 07:14:19;;;;;;;19.90;12.60;;;4.40;99.80;;;;;;5115004;28;20024;-81
2021/11/27 07:16:45;;;;;;;22.23;12.43;;;4.30;99.90;;;;;;5114515;28;20023;-80
2021/11/27 07:19:11;;;;;;;23.53;14.87;;;4.20;99.90;;;;;;5095996;28;20036;-81
2021/11/27 07:21:36;;;;;;;24.93;15.00;;;4.10;99.90;;;;;;5113313;28;20049;-80
2021/11/27 07:24:03;;;;;;;26.10;15.43;;;4.10;99.90;;;;;;5113223;28;20016;-81
2021/11/27 07:26:28;;;;;;;24.70;15.07;;;4.00;99.90;;;;;;5096704;28;20032;-80
2021/11/27 07:28:57;;;;;;;27.40;15.70;;;3.90;99.90;;;;;;5114700;28;20394;-81
2021/11/27 07:31:23;;;;;;;25.30;17.13;;;3.90;99.90;;;;;;5097197;28;20055;-81
2021/11/27 07:33:50;;;;;;;30.77;17.00;;;3.80;99.90;;;;;;5113820;28;20499;-81
2021/11/27 07:36:15;;;;;;;31.10;19.00;;;3.80;99.90;;;;;;5096765;28;20019;-81
2021/11/27 07:38:41;;;;;;;35.53;20.57;;;3.80;99.90;;;;;;5113814;28;20032;-81
2021/11/27 07:41:07;;;;;;;35.40;21.10;;;3.80;99.90;;;;;;5095981;28;20508;-81
2021/11/27 07:43:33;;;;;;;34.97;20.87;;;3.90;99.90;;;;;;5113031;28;20248;-81
2021/11/27 07:46:00;;;;;;;39.37;21.57;;;4.00;99.90;;;;;;5096240;28;20089;-81
2021/11/27 07:48:31;;;;;;;34.73;20.87;;;4.10;99.90;;;;;;5112829;28;20412;-81
2021/11/27 07:51:02;;;;;;;39.97;23.37;;;4.30;99.90;;;;;;5080306;28;20023;-81
2021/11/27 07:53:28;;;;;;;33.63;20.73;;;4.50;99.90;;;;;;5114771;28;20028;-81
2021/11/27 07:55:54;;;;;;;33.83;20.87;;;4.90;99.90;;;;;;5114497;28;20105;-81
2021/11/27 07:58:20;;;;;;;32.40;19.73;;;5.20;99.90;;;;;;5113496;28;20472;-81
2021/11/27 08:00:46;;;;;;;30.03;20.27;;;5.50;99.90;;;;;;5112692;28;20039;-80
2021/11/27 08:03:12;;;;;;;27.93;19.13;;;5.80;99.90;;;;;;5111811;28;20047;-81
2021/11/27 08:05:38;;;;;;;30.73;18.83;;;6.20;99.50;;;;;;5114614;28;20062;-80
2021/11/27 08:08:04;;;;;;;26.83;16.10;;;6.40;98.60;;;;;;5114610;28;20378;-80
2021/11/27 08:10:30;;;;;;;27.03;17.20;;;6.60;97.50;;;;;;5095624;28;20032;-80
2021/11/27 08:12:55;;;;;;;29.53;17.83;;;6.90;96.70;;;;;;5112743;28;20035;-80
2021/11/27 08:15:21;;;;;;;28.63;18.77;;;7.20;96.20;;;;;;5113841;27;20355;-82
2021/11/27 08:17:47;;;;;;;21.53;15.03;;;7.40;94.80;;;;;;5079095;28;20038;-81
2021/11/27 08:20:13;;;;;;;29.00;16.97;;;7.70;93.70;;;;;;5112682;28;20035;-80
2021/11/27 08:22:39;;;;;;;21.53;15.53;;;7.90;93.20;;;;;;5112587;28;20077;-81
2021/11/27 08:25:06;;;;;;;24.33;15.70;;;8.10;92.40;;;;;;5113011;28;20069;-81
2021/11/27 08:27:33;;;;;;;21.70;16.43;;;8.30;91.50;;;;;;5095367;28;20495;-80
2021/11/27 08:29:59;;;;;;;20.17;14.20;;;8.60;91.10;;;;;;5114543;28;20127;-81
2021/11/27 08:32:25;;;;;;;23.00;15.30;;;8.80;90.10;;;;;;5113366;28;20035;-81
2021/11/27 08:34:51;;;;;;;25.33;17.03;;;8.90;87.70;;;;;;5112583;28;20468;-83
2021/11/27 08:37:19;;;;;;;24.67;16.63;;;9.10;87.60;;;;;;5121097;28;20474;-81
2021/11/27 08:39:45;;;;;;;27.13;17.40;;;9.10;85.90;;;;;;5119699;28;20016;-82
2021/11/27 08:42:11;;;;;;;29.40;20.40;;;9.30;85.90;;;;;;5118137;28;20028;-81
2021/11/27 08:44:36;;;;;;;30.30;19.07;;;9.60;85.60;;;;;;5118547;28;20058;-83
2021/11/27 08:47:04;;;;;;;23.90;14.63;;;9.80;84.00;;;;;;5119586;28;20024;-82
2021/11/27 08:49:29;;;;;;;27.83;19.03;;;10.10;82.00;;;;;;5086290;28;20028;-81
2021/11/27 08:51:55;;;;;;;25.07;16.40;;;10.30;81.00;;;;;;5120348;28;20103;-82
2021/11/27 08:54:21;;;;;;;30.30;17.80;;;10.40;79.80;;;;;;5101886;28;20049;-82
2021/11/27 08:56:47;;;;;;;23.03;15.43;;;10.40;78.10;;;;;;5119936;28;20059;-83
2021/11/27 08:59:13;;;;;;;26.43;18.13;;;10.60;78.50;;;;;;5119790;28;20044;-82
2021/11/27 09:01:41;;;;;;;24.33;15.73;;;10.80;78.00;;;;;;5118615;28;20031;-81
2021/11/27 09:04:07;;;;;;;26.50;18.17;;;11.00;76.90;;;;;;5119019;28;20028;-83
2021/11/27 09:06:32;;;;;;;22.73;16.30;;;11.30;76.30;;;;;;5119429;28;20185;-84
2021/11/27 09:08:59;;;;;;;22.20;16.58;;;11.60;75.20;;;;;;5121495;28;20046;-85
2021/11/27 09:11:28;;;;;;;29.42;20.15;;;11.90;74.30;;;;;;5121416;28;20028;-82
2021/11/27 09:13:54;;;;;;;32.55;21.40;;;12.20;74.00;;;;;;5121281;28;20016;-84
2021/11/27 09:16:20;;;;;;;26.75;18.25;;;12.40;73.30;;;;;;5106045;28;20020;-83
2021/11/27 09:18:46;;;;;;;24.65;16.20;;;12.70;72.60;;;;;;5123593;28;20546;-83
2021/11/27 09:21:12;;;;;;;24.67;16.35;;;12.90;71.10;;;;;;5122920;28;20038;-82
2021/11/27 09:23:38;;;;;;;23.88;16.05;;;13.00;69.90;;;;;;5123342;28;20034;-83
2021/11/27 09:26:04;;;;;;;21.83;14.80;;;13.20;69.50;;;;;;5108378;28;20031;-83
2021/11/27 09:28:29;;;;;;;20.20;13.80;;;13.30;68.70;;;;;;5125430;28;20055;-81
2021/11/27 09:30:55;;;;;;;23.48;15.00;;;13.50;67.20;;;;;;5107459;28;20482;-81
2021/11/27 09:33:21;;;;;;;21.15;14.07;;;13.50;67.00;;;;;;5091386;28;20024;-80
2021/11/27 09:36:02;;;;;;;21.00;14.68;;;13.50;66.70;;;;;;5124808;28;20024;-81
2021/11/27 09:38:29;;;;;;;19.52;13.38;;;13.60;66.90;;;;;;5124421;28;20429;-81
2021/11/27 09:41:19;;;;;;;17.27;12.45;;;13.80;66.00;;;;;;5125630;28;20031;-81
2021/11/27 09:43:47;;;;;;;18.15;11.70;;;13.90;65.50;;;;;;5124706;28;20024;-81
2021/11/27 09:46:16;;;;;;;16.88;11.23;;;14.10;65.40;;;;;;5125586;28;20027;-81
2021/11/27 09:48:46;;;;;;;15.98;10.90;;;14.10;65.10;;;;;;5108419;28;20028;-82
2021/11/27 09:51:12;;;;;;;18.20;10.88;;;14.20;64.60;;;;;;5108321;28;20030;-81
2021/11/27 09:53:45;;;;;;;17.85;9.52;;;14.30;64.30;;;;;;5124705;28;20028;-81
2021/11/27 09:56:14;;;;;;;17.92;9.95;;;14.10;63.20;;;;;;5124585;28;20031;-80
2021/11/27 09:58:40;;;;;;;17.42;10.68;;;14.20;63.70;;;;;;5124412;28;20109;-82
2021/11/27 10:01:07;;;;;;;17.67;10.60;;;14.30;63.40;;;;;;5125747;28;20024;-84
2021/11/27 10:03:34;;;;;;;17.02;11.30;;;14.40;63.50;;;;;;5124748;28;20028;-83
2021/11/27 10:06:00;;;;;;;15.80;10.68;;;14.40;62.90;;;;;;5125866;28;20031;-83
2021/11/27 10:08:27;;;;;;;15.40;10.55;;;14.40;62.20;;;;;;5107517;28;20047;-83
2021/11/27 10:10:53;;;;;;;17.85;11.50;;;14.30;61.70;;;;;;5107823;28;20028;-83
2021/11/27 10:13:21;;;;;;;17.48;12.13;;;14.30;62.50;;;;;;5106868;28;20091;-83
2021/11/27 10:15:48;;;;;;;16.98;11.27;;;14.50;62.00;;;;;;5123799;28;20459;-82
2021/11/27 10:18:22;;;;;;;16.80;9.48;;;14.60;61.70;;;;;;5122927;28;20042;-81
2021/11/27 10:21:19;;;;;;;18.05;10.55;;;14.60;60.80;;;;;;5124459;28;20028;-82
2021/11/27 10:23:46;;;;;;;16.17;9.02;;;14.70;61.30;;;;;;5122667;28;20034;-83
2021/11/27 10:26:29;;;;;;;18.17;9.93;;;14.70;60.50;;;;;;5088406;28;20024;-81
2021/11/27 10:29:12;;;;;;;15.20;9.57;;;14.80;60.80;;;;;;5122931;28;20059;-82
2021/11/27 10:31:38;;;;;;;19.50;10.52;;;14.90;60.70;;;;;;5122380;28;20050;-83
2021/11/27 10:34:03;;;;;;;13.32;7.57;;;15.00;61.00;;;;;;5104418;28;20032;-84
2021/11/27 10:36:33;;;;;;;16.67;9.32;;;15.10;60.10;;;;;;5104882;28;20059;-82
2021/11/27 10:39:07;;;;;;;11.90;7.45;;;15.00;59.90;;;;;;5122637;28;20470;-82
2021/11/27 10:41:37;;;;;;;15.32;9.38;;;15.00;59.40;;;;;;5124480;28;20110;-83
2021/11/27 10:44:04;;;;;;;14.30;8.38;;;15.00;60.70;;;;;;5123172;28;20024;-82
2021/11/27 10:46:35;;;;;;;11.75;7.28;;;15.10;59.70;;;;;;5122951;28;20096;-81
2021/11/27 10:49:04;;;;;;;19.02;8.95;;;14.90;58.10;;;;;;5123935;28;20514;-81
2021/11/27 10:51:30;;;;;;;15.85;9.70;;;14.60;59.00;;;;;;5122905;28;20035;-82
2021/11/27 10:54:02;;;;;;;15.48;8.13;;;14.70;61.10;;;;;;5105170;28;20023;-81
2021/11/27 10:56:45;;;;;;;12.47;7.80;;;14.80;58.40;;;;;;5123460;28;20024;-81
2021/11/27 10:59:11;;;;;;;;;;;14.80;58.50;;;;;;5123713;28;20035;-83
2021/11/27 11:02:00;;;;;;;15.27;7.60;;;14.70;59.40;;;;;;5122042;28;19903;-84
2021/11/27 11:04:27;;;;;;;14.43;8.02;;;14.40;58.80;;;;;;5124853;28;20023;-84
2021/11/27 11:07:24;;;;;;;13.15;6.78;;;14.30;59.50;;;;;;5107202;28;20035;-84
2021/11/27 11:10:08;;;;;;;15.57;8.35;;;14.10;58.70;;;;;;5124214;28;20460;-83
2021/11/27 11:12:44;;;;;;;15.82;8.82;;;13.90;59.80;;;;;;5123527;28;20032;-82
2021/11/27 11:15:34;;;;;;;13.48;7.88;;;13.90;61.20;;;;;;5123206;28;20047;-82
2021/11/27 11:18:10;;;;;;;13.77;7.95;;;13.80;60.50;;;;;;5125381;28;20020;-82
2021/11/27 11:20:40;;;;;;;16.25;7.47;;;13.80;60.80;;;;;;5123164;28;20111;-80
2021/11/27 11:23:12;;;;;;;9.95;6.18;;;13.80;62.00;;;;;;5123097;28;20051;-83
2021/11/27 11:25:50;;;;;;;;;;;13.80;62.00;;;;;;5122204;28;20024;-82
2021/11/27 11:28:16;;;;;;;15.75;7.43;;;13.60;62.30;;;;;;5122429;28;19916;-82
2021/11/27 11:30:46;;;;;;;13.48;6.53;;;13.40;62.20;;;;;;5121617;28;20031;-82
2021/11/27 11:33:15;;;;;;;14.68;7.13;;;13.10;63.00;;;;;;5120218;28;20134;-83
2021/11/27 11:35:42;;;;;;;13.07;7.70;;;12.90;63.90;;;;;;5121582;28;20098;-82
2021/11/27 11:38:12;;;;;;;15.45;6.60;;;12.70;64.00;;;;;;5123313;28;20065;-82
2021/11/27 11:40:39;;;;;;;14.00;6.93;;;12.60;64.20;;;;;;5121924;28;20027;-81
2021/11/27 11:43:05;;;;;;;21.52;7.47;;;12.40;64.60;;;;;;5120886;28;20212;-82
2021/11/27 11:45:31;;;;;;;12.93;7.20;;;12.20;64.50;;;;;;5121220;28;20028;-80
2021/11/27 11:47:58;;;;;;;15.73;7.17;;;11.90;65.90;;;;;;5121165;28;20030;-81
2021/11/27 11:50:26;;;;;;;12.47;6.47;;;11.70;67.00;;;;;;5103791;28;20035;-80
2021/11/27 11:53:24;;;;;;;11.17;6.97;;;11.40;66.70;;;;;;5123980;28;20023;-80
2021/11/27 11:55:53;;;;;;;16.47;7.27;;;11.00;66.90;;;;;;5087437;28;20040;-80
2021/11/27 11:58:25;;;;;;;15.70;7.33;;;10.60;67.50;;;;;;5123382;28;20027;-81
2021/11/27 12:00:57;;;;;;;9.87;5.80;;;10.40;68.90;;;;;;5121649;28;20024;-82
2021/11/27 12:03:23;;;;;;;19.80;7.70;;;10.40;69.20;;;;;;5122335;28;20034;-80
2021/11/27 12:05:55;;;;;;;13.60;6.77;;;10.30;70.10;;;;;;5105414;28;20431;-81
2021/11/27 12:08:49;;;;;;;11.13;5.40;;;10.20;70.20;;;;;;5121609;28;20031;-79
2021/11/27 12:11:34;;;;;;;;;;;10.00;69.60;;;;;;5121048;28;20314;-81
2021/11/27 12:14:01;;;;;;;14.10;4.97;;;9.90;70.80;;;;;;5119846;28;19910;-81
2021/11/27 12:16:27;;;;;;;13.20;5.53;;;9.80;70.50;;;;;;5103238;28;20074;-80
2021/11/27 12:19:07;;;;;;;15.67;6.00;;;9.60;70.30;;;;;;5119755;28;20039;-80
2021/11/27 12:21:33;;;;;;;14.33;6.33;;;9.60;72.30;;;;;;5120239;28;20030;-80
2021/11/27 12:23:59;;;;;;;15.90;6.03;;;9.60;72.00;;;;;;5102962;28;20015;-81
2021/11/27 12:26:25;;;;;;;11.70;5.87;;;9.50;72.80;;;;;;5119851;28;20055;-81
2021/11/27 12:28:51;;;;;;;11.13;5.70;;;9.50;72.50;;;;;;5101936;28;20048;-82
2021/11/27 12:31:18;;;;;;;13.47;5.80;;;9.40;72.60;;;;;;5120073;28;20120;-80
2021/11/27 12:33:59;;;;;;;10.73;5.13;;;9.30;72.00;;;;;;5120023;28;20024;-80
2021/11/27 12:36:25;;;;;;;14.23;7.87;;;9.10;71.60;;;;;;5119860;28;20051;-79
2021/11/27 12:38:58;;;;;;;17.83;8.33;;;9.00;73.40;;;;;;5119366;28;20062;-79
2021/11/27 12:41:35;;;;;;;15.27;7.10;;;9.00;75.40;;;;;;5122583;28;20027;-80
2021/11/27 12:44:16;;;;;;;21.00;8.30;;;9.00;74.80;;;;;;5122537;28;20039;-79
2021/11/27 12:47:13;;;;;;;19.23;9.13;;;9.00;75.00;;;;;;5120898;28;20384;-79